Time;durP1;ratioP1;P1;durP2;ratioP2;P2;SDS_P1;SDS_P2;PMS_P1;PMS_P2;Temp;Humidity;BMP_temperature;BMP_pressure;BME280_temperature;BME280_humidity;BME280_pressure;Samples;Min_cycle;Max_cycle;Signal;HPM_P1;HPM_P2
2022/10/03 00:00:12;;;;;;;21.33;6.18;;;11.40;99.90;;;;;;5095673;28;20060;-67
2022/10/03 00:03:14;;;;;;;26.73;7.10;;;11.40;99.90;;;;;;5068915;28;20035;-67
2022/10/03 00:06:01;;;;;;;13.80;5.43;;;11.60;99.90;;;;;;5077404;28;20077;-67
2022/10/03 00:08:53;;;;;;;13.32;4.93;;;11.70;99.90;;;;;;5095337;28;20040;-67
2022/10/03 00:11:28;;;;;;;15.68;5.45;;;11.60;99.90;;;;;;5071975;28;20020;-67
2022/10/03 00:14:28;;;;;;;17.35;5.38;;;11.70;99.90;;;;;;5095173;28;20021;-67
2022/10/03 00:17:19;;;;;;;15.10;5.25;;;11.60;99.90;;;;;;5095608;28;20039;-67
2022/10/03 00:20:05;;;;;;;18.05;5.40;;;11.60;99.90;;;;;;5048064;28;20043;-67
2022/10/03 00:22:34;;;;;;;16.15;5.55;;;11.70;99.90;;;;;;5095080;28;20074;-67
2022/10/03 00:25:31;;;;;;;14.48;5.15;;;11.80;99.90;;;;;;5095163;28;20109;-68
2022/10/03 00:28:14;;;;;;;17.50;4.90;;;11.90;99.90;;;;;;5076024;28;20044;-67
2022/10/03 00:31:00;;;;;;;19.45;6.30;;;11.70;99.90;;;;;;5095327;28;20020;-67
2022/10/03 00:33:38;;;;;;;17.70;5.50;;;11.80;99.90;;;;;;5061857;28;20029;-67
2022/10/03 00:36:24;;;;;;;17.83;5.22;;;11.50;99.90;;;;;;5072509;28;20032;-67
2022/10/03 00:39:13;;;;;;;20.88;5.78;;;11.20;99.90;;;;;;5095092;28;20085;-67
2022/10/03 00:42:12;;;;;;;18.05;5.30;;;11.00;99.90;;;;;;5094358;28;20476;-67
2022/10/03 00:45:18;;;;;;;15.02;5.35;;;11.10;99.90;;;;;;5094733;28;20114;-67
2022/10/03 00:47:55;;;;;;;20.55;5.05;;;11.40;99.90;;;;;;5074590;28;20055;-67
2022/10/03 00:50:35;;;;;;;17.40;5.20;;;11.50;99.90;;;;;;5094364;28;20012;-68
2022/10/03 00:53:23;;;;;;;15.70;4.50;;;11.50;99.90;;;;;;5094661;28;20161;-68
2022/10/03 00:56:14;;;;;;;22.80;5.00;;;11.60;99.90;;;;;;5067400;28;20020;-67
2022/10/03 00:58:56;;;;;;;17.90;5.57;;;11.40;99.90;;;;;;5094577;28;20044;-67
2022/10/03 01:01:33;;;;;;;11.93;5.20;;;11.30;99.90;;;;;;5094686;28;20028;-67
2022/10/03 01:04:16;;;;;;;10.73;4.40;;;11.30;99.90;;;;;;5094410;28;20032;-68
2022/10/03 01:06:48;;;;;;;13.57;4.50;;;11.20;99.90;;;;;;5094107;28;20472;-67
2022/10/03 01:09:29;;;;;;;14.43;4.32;;;11.20;99.90;;;;;;5094408;28;20368;-67
2022/10/03 01:12:17;;;;;;;13.63;3.90;;;11.20;99.90;;;;;;5094380;28;20040;-67
2022/10/03 01:15:04;;;;;;;20.10;4.90;;;11.10;99.90;;;;;;5070274;28;20050;-67
2022/10/03 01:17:48;;;;;;;12.20;4.78;;;11.30;99.90;;;;;;5094201;28;20491;-67
2022/10/03 01:20:35;;;;;;;15.00;5.60;;;11.30;99.90;;;;;;5093911;28;20415;-67
2022/10/03 01:23:36;;;;;;;12.25;4.68;;;11.00;99.90;;;;;;5066842;28;20169;-67
2022/10/03 01:26:23;;;;;;;11.23;5.22;;;11.00;99.90;;;;;;5093696;28;20032;-68
2022/10/03 01:32:19;;;;;;;16.50;4.72;;;11.00;99.90;;;;;;5072054;28;20111;-69
2022/10/03 01:34:57;;;;;;;12.20;4.53;;;11.00;99.90;;;;;;5093535;28;20031;-67
2022/10/03 01:37:31;;;;;;;16.48;4.78;;;10.90;99.90;;;;;;5093833;28;20524;-67
2022/10/03 01:40:12;;;;;;;12.70;4.55;;;11.10;99.90;;;;;;5093728;28;20039;-67
2022/10/03 01:42:57;;;;;;;17.30;4.55;;;11.20;99.90;;;;;;5093825;28;20026;-68
2022/10/03 01:45:52;;;;;;;16.63;4.07;;;11.20;99.90;;;;;;5071027;28;20357;-67
2022/10/03 01:48:35;;;;;;;13.93;4.35;;;11.00;99.90;;;;;;5056557;28;20048;-67
2022/10/03 01:51:15;;;;;;;13.73;4.68;;;11.00;99.90;;;;;;5093672;28;20064;-67
2022/10/03 01:53:53;;;;;;;17.00;4.95;;;10.80;99.90;;;;;;5093577;28;20077;-67
2022/10/03 01:57:00;;;;;;;11.25;4.28;;;11.00;99.90;;;;;;5093394;28;20058;-67
2022/10/03 01:59:55;;;;;;;16.73;4.38;;;10.90;99.90;;;;;;5069957;28;20115;-68
2022/10/03 02:02:24;;;;;;;13.10;4.20;;;11.00;99.90;;;;;;5082651;28;20028;-67
2022/10/03 02:04:53;;;;;;;20.48;4.38;;;10.80;99.90;;;;;;5093240;28;20407;-68
2022/10/03 02:07:49;;;;;;;15.73;4.38;;;10.60;99.90;;;;;;5093194;28;20193;-67
2022/10/03 02:10:51;;;;;;;11.88;4.38;;;10.60;99.90;;;;;;5093395;28;20043;-69
2022/10/03 02:13:34;;;;;;;16.75;5.30;;;10.60;99.90;;;;;;5044557;28;20060;-68
2022/10/03 02:16:30;;;;;;;11.52;4.38;;;10.70;99.90;;;;;;5072816;28;20036;-67
2022/10/03 02:19:02;;;;;;;14.10;4.80;;;10.90;99.90;;;;;;5072560;28;20481;-67
2022/10/03 02:21:31;;;;;;;15.95;4.78;;;10.90;99.90;;;;;;5054826;28;20021;-67
2022/10/03 02:24:15;;;;;;;13.57;3.85;;;10.80;99.90;;;;;;5072854;28;20125;-68
2022/10/03 02:26:49;;;;;;;12.45;4.60;;;10.60;99.90;;;;;;5072637;28;20040;-69
2022/10/03 02:29:18;;;;;;;17.48;3.97;;;10.60;99.90;;;;;;5058952;28;20532;-68
2022/10/03 02:31:49;;;;;;;14.27;4.47;;;10.70;99.90;;;;;;5054973;28;20040;-67
2022/10/03 02:34:42;;;;;;;13.63;5.05;;;10.60;99.90;;;;;;5072762;28;20051;-67
2022/10/03 02:37:17;;;;;;;9.52;4.40;;;10.50;99.90;;;;;;5038108;28;20039;-67
2022/10/03 02:40:01;;;;;;;21.95;5.07;;;10.20;99.90;;;;;;5072745;28;20029;-67
2022/10/03 02:43:05;;;;;;;17.85;5.82;;;10.20;99.90;;;;;;5072612;28;20033;-67
2022/10/03 02:45:37;;;;;;;15.50;6.32;;;9.90;99.90;;;;;;5068970;28;20090;-67
2022/10/03 02:48:05;;;;;;;17.52;6.72;;;9.50;99.90;;;;;;5059297;28;20032;-67
2022/10/03 02:50:43;;;;;;;15.40;5.45;;;9.40;99.90;;;;;;5072212;28;20024;-67
2022/10/03 02:53:14;;;;;;;15.15;5.60;;;9.30;99.90;;;;;;5058622;28;20032;-67
2022/10/03 02:55:55;;;;;;;22.80;6.75;;;9.30;99.90;;;;;;5072436;28;20024;-67
2022/10/03 02:58:29;;;;;;;13.00;5.72;;;9.60;99.90;;;;;;5041487;28;20086;-67
2022/10/03 03:01:14;;;;;;;18.77;6.53;;;10.00;99.90;;;;;;5072228;28;20077;-68
2022/10/03 03:03:56;;;;;;;16.45;6.38;;;10.00;99.90;;;;;;5072295;28;20055;-67
2022/10/03 03:06:51;;;;;;;18.40;5.72;;;10.10;99.90;;;;;;5072374;28;20370;-67
2022/10/03 03:09:41;;;;;;;17.95;4.93;;;10.10;99.90;;;;;;5072392;28;20419;-68
2022/10/03 03:12:13;;;;;;;16.25;5.00;;;10.20;99.90;;;;;;5060743;28;20025;-68
2022/10/03 03:14:50;;;;;;;12.20;5.05;;;10.10;99.90;;;;;;5072323;28;20472;-67
2022/10/03 03:17:47;;;;;;;21.23;5.28;;;10.10;99.90;;;;;;5072102;28;20457;-67
2022/10/03 03:20:39;;;;;;;11.32;5.45;;;10.20;99.90;;;;;;5072311;28;20119;-68
2022/10/03 03:23:13;;;;;;;13.98;4.93;;;10.10;99.90;;;;;;5072327;28;20369;-67
2022/10/03 03:26:02;;;;;;;15.25;5.90;;;10.20;99.90;;;;;;5058979;28;20053;-68
2022/10/03 03:28:45;;;;;;;12.05;5.57;;;10.10;99.90;;;;;;5071968;28;20396;-69
2022/10/03 03:31:36;;;;;;;17.17;5.82;;;10.20;99.90;;;;;;5071903;28;20090;-68
2022/10/03 03:34:27;;;;;;;14.70;5.97;;;10.20;99.90;;;;;;5071515;28;20040;-69
2022/10/03 03:36:57;;;;;;;15.97;5.63;;;10.20;99.90;;;;;;5072033;28;20028;-67
2022/10/03 03:39:31;;;;;;;18.10;5.15;;;10.20;99.90;;;;;;5071942;28;20032;-68
2022/10/03 03:42:11;;;;;;;10.70;4.55;;;10.20;99.90;;;;;;5071888;28;20551;-68
2022/10/03 03:44:49;;;;;;;18.13;5.57;;;10.20;99.90;;;;;;5071937;28;20625;-67
2022/10/03 03:47:42;;;;;;;10.38;5.22;;;10.20;99.90;;;;;;5071885;28;20059;-68
2022/10/03 03:50:32;;;;;;;14.98;5.65;;;10.20;99.90;;;;;;5053837;28;20059;-67
2022/10/03 03:53:16;;;;;;;18.20;5.57;;;10.10;99.90;;;;;;5059513;28;20101;-68
2022/10/03 03:55:47;;;;;;;16.65;5.97;;;10.20;99.90;;;;;;5071855;28;20033;-67
2022/10/03 03:58:32;;;;;;;16.65;4.70;;;10.10;99.90;;;;;;5072093;28;20062;-68
2022/10/03 04:01:03;;;;;;;14.38;5.45;;;10.00;99.90;;;;;;5071517;28;20150;-68
2022/10/03 04:04:07;;;;;;;14.85;5.57;;;10.10;99.90;;;;;;5074485;28;20381;-68
2022/10/03 04:06:53;;;;;;;17.00;6.30;;;10.00;99.90;;;;;;5062904;28;20028;-67
2022/10/03 04:09:37;;;;;;;14.20;6.20;;;10.20;99.90;;;;;;5075186;28;20107;-67
2022/10/03 04:12:09;;;;;;;14.73;7.10;;;10.10;99.90;;;;;;5075349;28;20039;-67
2022/10/03 04:14:53;;;;;;;;;;;10.10;99.90;;;;;;5075031;28;20039;-67
2022/10/03 04:20:46;;;;;;;16.45;6.55;;;10.00;99.90;;;;;;5065079;28;20028;-67
2022/10/03 04:23:11;;;;;;;24.27;8.52;;;10.00;99.90;;;;;;5074987;28;20451;-68
2022/10/03 04:25:43;;;;;;;21.48;7.50;;;9.80;99.90;;;;;;5074564;28;20024;-68
2022/10/03 04:28:30;;;;;;;;;;;9.90;99.90;;;;;;5075152;28;20048;-67
2022/10/03 04:31:22;;;;;;;15.27;5.82;;;9.80;99.90;;;;;;5063025;28;19916;-67
2022/10/03 04:33:55;;;;;;;18.15;6.22;;;9.80;99.90;;;;;;5074886;28;20032;-67
2022/10/03 04:36:39;;;;;;;12.95;6.70;;;9.70;99.90;;;;;;5056791;28;20032;-67
2022/10/03 04:39:21;;;;;;;16.25;6.75;;;9.80;99.90;;;;;;5074690;28;20024;-67
2022/10/03 04:41:56;;;;;;;16.98;6.53;;;9.90;99.90;;;;;;5074876;28;20107;-67
2022/10/03 04:44:29;;;;;;;22.95;7.85;;;9.90;99.90;;;;;;5061189;28;20032;-67
2022/10/03 04:47:01;;;;;;;20.75;7.22;;;9.90;99.90;;;;;;5074560;28;20045;-67
2022/10/03 04:49:31;;;;;;;27.00;7.05;;;9.80;99.90;;;;;;5043189;28;20024;-67
2022/10/03 04:52:04;;;;;;;23.67;7.88;;;9.60;99.90;;;;;;5074452;28;20032;-67
2022/10/03 04:54:43;;;;;;;27.40;7.72;;;9.70;99.90;;;;;;5074269;28;20108;-68
2022/10/03 04:57:36;;;;;;;22.30;7.43;;;9.70;99.90;;;;;;5056329;28;20476;-67
2022/10/03 05:00:14;;;;;;;20.92;6.95;;;9.80;99.90;;;;;;5063994;28;20107;-68
2022/10/03 05:02:57;;;;;;;24.50;7.97;;;9.70;99.90;;;;;;5074216;28;20021;-68
2022/10/03 05:05:32;;;;;;;22.63;7.90;;;9.70;99.90;;;;;;5074365;28;20115;-68
2022/10/03 05:08:46;;;;;;;22.48;7.65;;;9.80;99.90;;;;;;5074280;28;20358;-68
2022/10/03 05:11:33;;;;;;;21.10;7.85;;;9.70;99.90;;;;;;5056288;28;20020;-67
2022/10/03 05:14:10;;;;;;;17.50;7.25;;;9.70;99.90;;;;;;5073845;28;20032;-67
2022/10/03 05:16:46;;;;;;;22.17;8.30;;;9.70;99.90;;;;;;5074516;28;20042;-68
2022/10/03 05:19:40;;;;;;;34.38;10.57;;;9.70;99.90;;;;;;5074318;28;20067;-68
2022/10/03 05:22:48;;;;;;;29.83;10.90;;;9.80;99.90;;;;;;5045453;28;20028;-67
2022/10/03 05:25:27;;;;;;;28.42;10.05;;;10.10;99.90;;;;;;5073312;28;20043;-68
2022/10/03 05:28:10;;;;;;;22.42;9.85;;;9.80;99.90;;;;;;5073621;28;20056;-67
2022/10/03 05:31:02;;;;;;;25.55;9.32;;;9.70;99.90;;;;;;5073519;28;20376;-68
2022/10/03 05:33:41;;;;;;;21.23;9.52;;;9.60;99.90;;;;;;5072910;28;20089;-68
2022/10/03 05:36:27;;;;;;;24.40;8.68;;;9.60;99.90;;;;;;5073724;28;20457;-68
2022/10/03 05:39:20;;;;;;;33.55;9.40;;;9.60;99.90;;;;;;5055605;28;20033;-68
2022/10/03 05:42:19;;;;;;;34.95;9.48;;;9.60;99.90;;;;;;5073453;28;20035;-68
2022/10/03 05:45:04;;;;;;;30.38;10.55;;;9.70;99.90;;;;;;5073513;28;20475;-67
2022/10/03 05:47:45;;;;;;;15.98;8.48;;;9.70;99.90;;;;;;5073199;28;20060;-68
2022/10/03 05:50:40;;;;;;;25.80;9.32;;;9.70;99.90;;;;;;5055721;28;20079;-68
2022/10/03 05:53:21;;;;;;;27.02;9.57;;;9.60;99.90;;;;;;5073392;28;20051;-68
2022/10/03 05:56:05;;;;;;;19.80;8.35;;;9.70;99.90;;;;;;5072736;28;20461;-68
2022/10/03 05:58:40;;;;;;;23.65;9.18;;;9.80;99.90;;;;;;5073324;28;20557;-67
2022/10/03 06:01:24;;;;;;;23.95;9.88;;;9.70;99.90;;;;;;5073175;28;20017;-67
2022/10/03 06:04:02;;;;;;;23.92;10.93;;;9.60;99.90;;;;;;5073139;28;20114;-67
2022/10/03 06:07:03;;;;;;;22.38;8.68;;;9.70;99.90;;;;;;5072403;28;20058;-67
2022/10/03 06:09:35;;;;;;;19.42;7.93;;;9.70;99.90;;;;;;5072377;28;20020;-67
2022/10/03 06:12:21;;;;;;;24.42;9.82;;;9.60;99.90;;;;;;5054984;28;20060;-68
2022/10/03 06:15:08;;;;;;;27.27;9.63;;;9.80;99.90;;;;;;5072822;28;20108;-67
2022/10/03 06:17:52;;;;;;;27.83;9.30;;;9.80;99.90;;;;;;5072700;28;20043;-67
2022/10/03 06:20:56;;;;;;;30.63;11.40;;;9.80;99.90;;;;;;5061727;28;20024;-67
2022/10/03 06:23:54;;;;;;;67.43;29.20;;;9.80;99.90;;;;;;5072467;28;20587;-67
2022/10/03 06:26:53;;;;;;;57.85;28.67;;;10.00;99.90;;;;;;5054297;28;20028;-67
2022/10/03 06:30:02;;;;;;;65.30;30.30;;;10.10;99.90;;;;;;5061817;28;20059;-69
2022/10/03 06:32:55;;;;;;;32.53;15.38;;;10.30;99.90;;;;;;5059661;28;20024;-67
2022/10/03 06:35:51;;;;;;;36.03;14.43;;;10.50;99.90;;;;;;5054096;28;20465;-71
2022/10/03 06:38:28;;;;;;;28.80;12.63;;;10.60;99.90;;;;;;5063506;28;20238;-69
2022/10/03 06:41:39;;;;;;;30.90;13.27;;;10.60;99.90;;;;;;5065934;28;20031;-68
2022/10/03 06:44:28;;;;;;;37.42;17.05;;;10.90;99.90;;;;;;5042200;28;20829;-68
2022/10/03 06:47:19;;;;;;;56.00;30.73;;;10.80;99.90;;;;;;5012464;28;20776;-69
2022/10/03 06:49:54;;;;;;;35.47;16.98;;;11.00;99.90;;;;;;5058307;28;20016;-70
2022/10/03 06:52:37;;;;;;;28.05;14.40;;;11.20;99.90;;;;;;5068102;28;20044;-67
2022/10/03 06:55:05;;;;;;;29.88;13.20;;;11.40;99.90;;;;;;5040841;28;20416;-67
2022/10/03 06:58:08;;;;;;;27.27;11.27;;;11.40;99.90;;;;;;5065254;28;20059;-68
2022/10/03 07:01:11;;;;;;;26.95;12.73;;;11.50;99.90;;;;;;5067859;28;21423;-67
2022/10/03 07:04:14;;;;;;;31.02;13.20;;;11.60;99.90;;;;;;5049406;28;20029;-71
2022/10/03 07:07:18;;;;;;;29.77;12.13;;;11.60;99.90;;;;;;5044860;28;20122;-67
2022/10/03 07:10:08;;;;;;;31.67;13.45;;;11.40;99.90;;;;;;5039839;28;20040;-67
2022/10/03 07:12:42;;;;;;;41.00;13.48;;;11.20;99.90;;;;;;5066937;28;20426;-68
2022/10/03 07:15:32;;;;;;;30.58;13.35;;;11.30;99.90;;;;;;5050579;28;20760;-68
2022/10/03 07:18:32;;;;;;;30.67;11.55;;;11.60;99.90;;;;;;5046900;28;20032;-66
2022/10/03 07:21:13;;;;;;;30.67;12.48;;;11.70;99.90;;;;;;5072358;28;20036;-67
2022/10/03 07:24:12;;;;;;;26.20;13.33;;;11.70;99.90;;;;;;5035785;28;20050;-67
2022/10/03 07:27:18;;;;;;;36.55;13.05;;;12.00;99.90;;;;;;5030879;28;20051;-67
2022/10/03 07:30:14;;;;;;;37.97;13.73;;;12.20;99.90;;;;;;5023434;28;20424;-67
2022/10/03 07:32:56;;;;;;;32.60;13.15;;;12.40;99.90;;;;;;5064318;28;20031;-67
2022/10/03 07:38:57;;;;;;;32.50;12.77;;;12.60;99.90;;;;;;5075585;28;20024;-67
2022/10/03 07:41:32;;;;;;;31.87;14.07;;;12.90;99.90;;;;;;5067385;28;20021;-67
2022/10/03 07:44:19;;;;;;;32.17;13.52;;;13.00;99.90;;;;;;5067779;28;20032;-67
2022/10/03 07:47:00;;;;;;;31.67;13.50;;;13.00;99.90;;;;;;5071528;28;20423;-67
2022/10/03 07:49:48;;;;;;;29.20;12.45;;;13.10;99.90;;;;;;5079898;28;20039;-67
2022/10/03 07:52:33;;;;;;;32.25;12.05;;;13.10;99.90;;;;;;5037344;28;20039;-67
2022/10/03 07:55:39;;;;;;;31.42;12.60;;;12.80;99.90;;;;;;5084524;28;20078;-67
2022/10/03 07:58:33;;;;;;;45.72;13.20;;;12.80;99.90;;;;;;5070634;28;20124;-68
2022/10/03 08:01:02;;;;;;;30.10;13.20;;;12.70;99.90;;;;;;5053431;28;20052;-67
2022/10/03 08:03:57;;;;;;;28.17;11.73;;;12.90;99.90;;;;;;5071326;28;20024;-67
2022/10/03 08:06:42;;;;;;;26.70;11.93;;;13.30;99.90;;;;;;5017174;28;20052;-68
2022/10/03 08:09:20;;;;;;;31.35;11.52;;;13.40;99.90;;;;;;5068628;28;20036;-67
2022/10/03 08:11:57;;;;;;;32.88;12.73;;;13.50;99.90;;;;;;5071184;28;20346;-68
2022/10/03 08:14:57;;;;;;;24.50;10.50;;;13.40;99.90;;;;;;5043437;28;20111;-67
2022/10/03 08:17:29;;;;;;;36.63;10.82;;;13.40;99.90;;;;;;5067582;28;20485;-67
2022/10/03 08:20:14;;;;;;;37.25;11.30;;;13.70;99.90;;;;;;5069560;28;20035;-67
2022/10/03 08:22:40;;;;;;;30.40;11.55;;;14.10;99.90;;;;;;5070702;28;20025;-67
2022/10/03 08:25:27;;;;;;;37.22;11.30;;;14.10;99.90;;;;;;5050609;28;20033;-67
2022/10/03 08:27:56;;;;;;;29.23;11.48;;;14.30;99.90;;;;;;5067065;28;20063;-68
2022/10/03 08:30:36;;;;;;;28.17;11.10;;;14.70;99.90;;;;;;5054906;28;20070;-68
2022/10/03 08:33:20;;;;;;;30.75;12.32;;;14.80;99.90;;;;;;5069840;28;20078;-67
2022/10/03 08:36:05;;;;;;;31.33;12.45;;;14.90;99.90;;;;;;5046773;28;20103;-69
2022/10/03 08:38:49;;;;;;;37.10;10.93;;;15.20;99.90;;;;;;5066698;28;20103;-67
2022/10/03 08:41:51;;;;;;;28.25;11.02;;;15.50;99.90;;;;;;5061812;28;20032;-67
2022/10/03 08:44:17;;;;;;;;;;;15.50;99.90;;;;;;5049612;28;20067;-67
2022/10/03 08:47:00;;;;;;;24.60;8.40;;;15.50;99.90;;;;;;5070257;28;19962;-68
2022/10/03 08:49:38;;;;;;;32.85;9.85;;;15.10;99.90;;;;;;5040695;28;20473;-67
2022/10/03 08:52:05;;;;;;;28.55;9.35;;;14.90;99.90;;;;;;5070320;28;20043;-69
2022/10/03 08:54:31;;;;;;;32.75;8.93;;;15.10;99.90;;;;;;5069352;28;20025;-68
2022/10/03 08:57:31;;;;;;;20.70;7.32;;;15.50;99.90;;;;;;5057613;28;20129;-67
2022/10/03 09:00:15;;;;;;;25.95;8.02;;;15.10;99.90;;;;;;5067453;28;20036;-67
2022/10/03 09:02:53;;;;;;;28.45;8.85;;;15.60;99.90;;;;;;5069628;28;20024;-68
2022/10/03 09:06:07;;;;;;;23.98;8.60;;;16.00;99.90;;;;;;5060995;28;20044;-68
2022/10/03 09:08:56;;;;;;;20.85;7.13;;;16.60;99.90;;;;;;5045491;28;20536;-67
2022/10/03 09:12:02;;;;;;;25.33;7.82;;;17.00;99.90;;;;;;5068773;28;20028;-67
2022/10/03 09:14:30;;;;;;;24.35;7.10;;;17.20;99.90;;;;;;5030194;28;20074;-67
2022/10/03 09:17:14;;;;;;;24.45;6.57;;;16.70;99.90;;;;;;5069728;28;20473;-67
2022/10/03 09:19:52;;;;;;;30.10;7.88;;;16.70;99.90;;;;;;5069294;28;20052;-67
2022/10/03 09:22:43;;;;;;;20.35;6.45;;;17.00;99.90;;;;;;5064099;28;20037;-66
2022/10/03 09:25:22;;;;;;;22.73;6.33;;;16.70;99.90;;;;;;5062792;28;20063;-67
2022/10/03 09:28:00;;;;;;;22.08;6.05;;;16.80;99.90;;;;;;5069474;28;20143;-67
2022/10/03 09:30:28;;;;;;;22.33;6.35;;;17.10;99.90;;;;;;5058257;28;20036;-67
2022/10/03 09:33:32;;;;;;;22.90;7.53;;;17.80;99.90;;;;;;5071281;28;20031;-66
2022/10/03 09:36:12;;;;;;;23.80;5.72;;;18.40;99.90;;;;;;5041225;28;20396;-67
2022/10/03 09:39:02;;;;;;;19.58;5.60;;;18.10;99.90;;;;;;5070763;28;20025;-67
2022/10/03 09:41:53;;;;;;;24.38;4.75;;;16.90;99.90;;;;;;5050313;28;20587;-67
2022/10/03 09:44:33;;;;;;;18.60;5.50;;;16.90;99.90;;;;;;5066840;28;20586;-67
2022/10/03 09:47:26;;;;;;;19.98;4.95;;;16.80;99.90;;;;;;5068580;28;20462;-67
2022/10/03 09:50:08;;;;;;;22.55;4.20;;;16.90;99.90;;;;;;5062638;28;20024;-67
2022/10/03 09:53:05;;;;;;;18.33;4.72;;;17.00;99.90;;;;;;5063179;28;20373;-68
2022/10/03 09:55:52;;;;;;;21.77;5.10;;;17.80;99.90;;;;;;5065719;28;20036;-68
2022/10/03 09:58:36;;;;;;;24.05;4.82;;;18.20;99.90;;;;;;5044320;28;20123;-67
2022/10/03 10:01:46;;;;;;;26.20;5.40;;;17.80;99.90;;;;;;5063787;28;20477;-68
2022/10/03 10:04:47;;;;;;;22.92;5.50;;;18.40;99.90;;;;;;5047395;28;20082;-68
2022/10/03 10:07:27;;;;;;;22.00;4.50;;;18.10;99.90;;;;;;5021197;28;20060;-67
2022/10/03 10:10:29;;;;;;;21.92;5.35;;;18.70;99.90;;;;;;5049436;28;20064;-67
2022/10/03 10:13:12;;;;;;;17.67;4.63;;;18.20;99.90;;;;;;5071131;28;20374;-68
2022/10/03 10:15:44;;;;;;;23.02;4.57;;;18.00;99.90;;;;;;5052316;28;20064;-67
2022/10/03 10:18:23;;;;;;;17.38;4.20;;;18.30;99.90;;;;;;5071702;28;20028;-68
2022/10/03 10:21:08;;;;;;;30.83;4.85;;;18.30;99.90;;;;;;5071818;28;20081;-67
2022/10/03 10:23:42;;;;;;;22.33;4.00;;;18.70;99.90;;;;;;5056166;28;20032;-67
2022/10/03 10:26:42;;;;;;;25.65;4.63;;;19.40;99.90;;;;;;5066574;28;20032;-67
2022/10/03 10:29:45;;;;;;;18.77;4.25;;;19.80;99.90;;;;;;5063971;28;20060;-67
2022/10/03 10:32:35;;;;;;;10.95;3.40;;;20.10;99.90;;;;;;5070061;28;20027;-67
2022/10/03 10:35:15;;;;;;;13.98;3.17;;;20.00;99.90;;;;;;5068833;28;20032;-66
2022/10/03 10:37:54;;;;;;;19.27;4.10;;;19.60;99.90;;;;;;5066134;28;20491;-68
2022/10/03 10:40:49;;;;;;;14.32;3.22;;;19.60;99.90;;;;;;5070609;28;20064;-68
2022/10/03 10:43:54;;;;;;;13.40;2.80;;;19.60;99.90;;;;;;5066907;28;20080;-68
2022/10/03 10:46:37;;;;;;;12.90;4.20;;;19.70;99.90;;;;;;5063216;28;20021;-67
2022/10/03 10:49:56;;;;;;;14.85;2.95;;;19.90;99.90;;;;;;5071341;28;20067;-68
2022/10/03 10:52:59;;;;;;;14.60;3.33;;;20.30;99.90;;;;;;5041585;28;20044;-68
2022/10/03 10:55:49;;;;;;;10.00;2.90;;;20.30;99.90;;;;;;5067202;28;20107;-67
2022/10/03 10:59:00;;;;;;;8.63;2.60;;;20.60;99.90;;;;;;5062780;28;20033;-68
2022/10/03 11:01:25;;;;;;;11.00;2.33;;;20.80;99.90;;;;;;5026004;28;20040;-68
2022/10/03 11:04:23;;;;;;;8.68;1.85;;;20.70;99.90;;;;;;5071299;28;20391;-68
2022/10/03 11:07:18;;;;;;;10.05;2.33;;;20.80;99.10;;;;;;5025745;28;20044;-69
2022/10/03 11:09:50;;;;;;;14.80;2.42;;;20.80;99.90;;;;;;5041733;28;20036;-68
2022/10/03 11:12:47;;;;;;;14.85;2.53;;;21.70;99.90;;;;;;5067912;28;20017;-68
2022/10/03 11:15:35;;;;;;;9.73;2.58;;;22.70;97.10;;;;;;5070156;28;20107;-68
2022/10/03 11:18:19;;;;;;;9.52;2.92;;;23.00;97.00;;;;;;5072909;28;20435;-68
2022/10/03 11:21:22;;;;;;;10.35;2.90;;;22.20;97.70;;;;;;5075392;28;20040;-68
2022/10/03 11:24:15;;;;;;;8.27;2.35;;;22.60;98.00;;;;;;5061275;28;20039;-68
2022/10/03 11:27:22;;;;;;;9.98;2.28;;;22.40;96.80;;;;;;5066580;28;20033;-68
2022/10/03 11:30:06;;;;;;;12.73;2.90;;;22.20;96.60;;;;;;5068620;28;20057;-68
2022/10/03 11:33:17;;;;;;;10.80;2.03;;;21.80;97.70;;;;;;5063687;28;20032;-68
2022/10/03 11:36:06;;;;;;;11.57;2.70;;;21.40;98.00;;;;;;5071135;28;20032;-68
2022/10/03 11:38:45;;;;;;;8.93;2.42;;;20.80;99.40;;;;;;5075158;28;20029;-68
2022/10/03 11:41:17;;;;;;;6.70;2.00;;;20.10;99.90;;;;;;5074452;28;20392;-68
2022/10/03 11:44:14;;;;;;;14.40;2.53;;;19.90;99.90;;;;;;5072967;28;20032;-68
2022/10/03 11:46:45;;;;;;;13.65;3.00;;;19.80;99.90;;;;;;5055926;28;20082;-68
2022/10/03 11:49:17;;;;;;;;;;;19.10;99.90;;;;;;5070842;28;20048;-68
2022/10/03 11:51:47;;;;;;;8.13;2.17;;;18.30;99.90;;;;;;5070077;28;20375;-68
2022/10/03 11:54:26;;;;;;;18.02;3.70;;;18.70;99.90;;;;;;5071237;28;20176;-71
2022/10/03 11:57:04;;;;;;;9.77;2.78;;;19.20;99.90;;;;;;5064761;28;20028;-73
2022/10/03 11:59:35;;;;;;;9.02;2.50;;;19.20;99.90;;;;;;5074526;28;20036;-72
2022/10/03 12:02:28;;;;;;;10.55;2.80;;;18.90;99.90;;;;;;5073455;28;20408;-73
2022/10/03 12:05:01;;;;;;;14.25;2.30;;;18.80;99.90;;;;;;5069397;28;20472;-72
2022/10/03 12:10:49;;;;;;;13.80;2.30;;;20.70;99.90;;;;;;5073742;28;20074;-74
2022/10/03 12:13:22;;;;;;;10.15;2.88;;;21.20;99.10;;;;;;5068348;28;20048;-72
2022/10/03 12:15:53;;;;;;;11.07;3.10;;;19.90;99.90;;;;;;5050451;28;20043;-72
2022/10/03 12:18:47;;;;;;;17.00;2.40;;;20.30;99.90;;;;;;5067992;28;20029;-73
2022/10/03 12:21:42;;;;;;;13.80;2.28;;;21.30;99.30;;;;;;5068696;28;20039;-73
2022/10/03 12:24:22;;;;;;;15.05;3.33;;;20.20;99.90;;;;;;5062869;28;20024;-72
2022/10/03 12:26:54;;;;;;;15.98;2.60;;;19.70;99.90;;;;;;5074634;28;20037;-73
2022/10/03 12:29:21;;;;;;;;;;;20.10;99.90;;;;;;5074425;28;20185;-73
2022/10/03 12:31:58;;;;;;;10.55;2.55;;;20.80;99.90;;;;;;5075131;28;20284;-73
2022/10/03 12:34:26;;;;;;;13.43;3.05;;;21.50;99.70;;;;;;5074971;28;20029;-74
2022/10/03 12:37:22;;;;;;;8.45;2.08;;;22.60;98.10;;;;;;5074789;28;20036;-73
2022/10/03 12:40:24;;;;;;;13.73;2.13;;;24.10;96.20;;;;;;5075063;28;20116;-74
2022/10/03 12:43:04;;;;;;;15.35;2.72;;;25.80;93.80;;;;;;5074840;28;20021;-74
2022/10/03 12:45:33;;;;;;;11.10;2.03;;;24.30;94.60;;;;;;5074714;28;20481;-74
2022/10/03 12:48:18;;;;;;;12.07;2.50;;;24.30;95.00;;;;;;5074737;28;20123;-74
2022/10/03 12:51:05;;;;;;;8.63;2.05;;;24.90;94.10;;;;;;5074675;28;20090;-74
2022/10/03 12:54:11;;;;;;;7.95;2.10;;;24.70;93.30;;;;;;5074694;28;20423;-75
2022/10/03 12:56:53;;;;;;;9.93;2.53;;;23.80;94.00;;;;;;4973368;28;20129;-74
2022/10/03 12:59:40;;;;;;;12.50;2.30;;;24.10;94.20;;;;;;5072291;28;20094;-74
2022/10/03 13:02:18;;;;;;;13.30;2.42;;;24.80;93.20;;;;;;5074137;28;20032;-74
2022/10/03 13:05:11;;;;;;;12.82;2.50;;;25.40;92.60;;;;;;5061102;28;20052;-74
2022/10/03 13:07:59;;;;;;;11.02;1.90;;;24.90;92.00;;;;;;5074158;28;20033;-74
2022/10/03 13:10:44;;;;;;;10.93;2.53;;;23.60;93.40;;;;;;5073924;28;20028;-74
2022/10/03 13:13:37;;;;;;;8.68;2.15;;;22.20;95.10;;;;;;5056035;28;20473;-73
2022/10/03 13:16:28;;;;;;;9.85;2.10;;;21.20;96.90;;;;;;5074003;28;20510;-73
2022/10/03 13:18:54;;;;;;;;;;;21.20;98.40;;;;;;5074569;28;20526;-75
2022/10/03 13:21:41;;;;;;;9.38;2.00;;;21.00;99.20;;;;;;5074039;28;19904;-74
2022/10/03 13:24:22;;;;;;;8.73;2.05;;;20.80;98.70;;;;;;5062199;28;20039;-73
2022/10/03 13:27:19;;;;;;;7.88;2.17;;;20.80;97.80;;;;;;5055466;28;20043;-74
2022/10/03 13:29:56;;;;;;;14.48;2.80;;;21.40;98.40;;;;;;5055930;28;20390;-74
2022/10/03 13:32:38;;;;;;;79.57;7.18;;;20.50;98.50;;;;;;5070802;28;20498;-73
2022/10/03 13:38:33;;;;;;;10.70;2.13;;;20.00;99.90;;;;;;5073039;28;20043;-73
2022/10/03 13:41:20;;;;;;;10.93;2.83;;;19.90;99.90;;;;;;5073577;28;20041;-73
2022/10/03 13:44:12;;;;;;;9.88;2.25;;;20.30;99.50;;;;;;5073571;28;20032;-73
2022/10/03 13:46:57;;;;;;;9.05;2.55;;;19.90;99.90;;;;;;5073782;28;20024;-73
2022/10/03 13:49:34;;;;;;;11.70;1.95;;;19.10;99.90;;;;;;5055478;28;20054;-73
2022/10/03 13:52:06;;;;;;;11.05;2.47;;;19.10;99.90;;;;;;5073674;28;20377;-73
2022/10/03 13:54:47;;;;;;;;;;;18.90;99.90;;;;;;5060090;28;20059;-72
2022/10/03 13:57:23;;;;;;;12.35;1.85;;;19.30;99.90;;;;;;5072985;28;20007;-73
2022/10/03 14:00:08;;;;;;;9.00;2.20;;;19.60;99.90;;;;;;5055625;28;20468;-72
2022/10/03 14:02:40;;;;;;;13.35;1.77;;;19.50;99.90;;;;;;5073180;28;20103;-73
2022/10/03 14:05:09;;;;;;;10.38;2.10;;;19.20;99.90;;;;;;5073376;28;20411;-71
2022/10/03 14:07:44;;;;;;;9.52;2.30;;;19.50;99.90;;;;;;5055074;28;20028;-69
2022/10/03 14:10:48;;;;;;;9.32;2.22;;;19.60;99.90;;;;;;5072924;28;20155;-71
2022/10/03 14:13:44;;;;;;;10.35;2.60;;;19.70;99.90;;;;;;5041456;28;20378;-72
2022/10/03 14:16:33;;;;;;;10.45;2.10;;;19.00;99.90;;;;;;5072730;28;20028;-72
2022/10/03 14:19:14;;;;;;;11.98;2.35;;;18.90;99.90;;;;;;5072681;28;20384;-72
2022/10/03 14:22:14;;;;;;;11.57;2.63;;;19.00;99.90;;;;;;5072646;28;20033;-73
2022/10/03 14:24:55;;;;;;;14.25;2.30;;;19.20;99.90;;;;;;5054880;28;20024;-73
2022/10/03 14:27:44;;;;;;;10.75;2.13;;;19.40;99.90;;;;;;5059192;28;20378;-72